sensor_id;sensor_type;location;lat;lon;timestamp;pressure;altitude;pressure_sealevel;temperature;humidity
10606;BME280;5350;42.698;23.148;2022-10-19T00:01:03;94235.28;;;6.44;93.39
10606;BME280;5350;42.698;23.148;2022-10-19T00:03:30;94237.84;;;6.39;91.93
10606;BME280;5350;42.698;23.148;2022-10-19T00:05:58;94221.00;;;6.25;92.19
10606;BME280;5350;42.698;23.148;2022-10-19T00:08:25;94239.84;;;6.27;90.47
10606;BME280;5350;42.698;23.148;2022-10-19T00:10:52;94240.84;;;6.26;90.58
10606;BME280;5350;42.698;23.148;2022-10-19T00:13:18;94225.69;;;6.23;91.56
10606;BME280;5350;42.698;23.148;2022-10-19T00:15:45;94224.53;;;6.14;91.63
10606;BME280;5350;42.698;23.148;2022-10-19T00:18:12;94219.22;;;6.04;91.35
10606;BME280;5350;42.698;23.148;2022-10-19T00:20:38;94224.00;;;6.12;91.01
10606;BME280;5350;42.698;23.148;2022-10-19T00:23:06;94211.94;;;6.06;87.87
10606;BME280;5350;42.698;23.148;2022-10-19T00:25:33;94216.69;;;6.09;88.65
10606;BME280;5350;42.698;23.148;2022-10-19T00:28:02;94218.25;;;6.10;88.41
10606;BME280;5350;42.698;23.148;2022-10-19T00:30:29;94206.22;;;6.09;88.95
10606;BME280;5350;42.698;23.148;2022-10-19T00:32:55;94204.03;;;6.01;89.29
10606;BME280;5350;42.698;23.148;2022-10-19T00:35:22;94202.19;;;5.96;90.06
10606;BME280;5350;42.698;23.148;2022-10-19T00:37:49;94202.94;;;5.97;89.23
10606;BME280;5350;42.698;23.148;2022-10-19T00:40:17;94194.91;;;5.98;90.79
10606;BME280;5350;42.698;23.148;2022-10-19T00:42:44;94180.97;;;5.93;87.78
10606;BME280;5350;42.698;23.148;2022-10-19T00:45:13;94180.22;;;5.92;90.29
10606;BME280;5350;42.698;23.148;2022-10-19T00:47:41;94184.13;;;5.95;89.73
10606;BME280;5350;42.698;23.148;2022-10-19T00:50:09;94176.25;;;5.90;89.13
10606;BME280;5350;42.698;23.148;2022-10-19T00:52:39;94174.47;;;5.95;90.16
10606;BME280;5350;42.698;23.148;2022-10-19T00:55:07;94173.41;;;5.91;90.42
10606;BME280;5350;42.698;23.148;2022-10-19T00:57:36;94163.69;;;5.87;91.09
10606;BME280;5350;42.698;23.148;2022-10-19T01:00:05;94147.38;;;5.75;93.98
10606;BME280;5350;42.698;23.148;2022-10-19T01:02:32;94160.06;;;5.88;94.58
10606;BME280;5350;42.698;23.148;2022-10-19T01:05:00;94154.94;;;5.76;97.39
10606;BME280;5350;42.698;23.148;2022-10-19T01:07:27;94145.75;;;5.68;98.71
10606;BME280;5350;42.698;23.148;2022-10-19T01:09:54;94147.25;;;5.64;99.50
10606;BME280;5350;42.698;23.148;2022-10-19T01:12:36;94151.22;;;5.67;99.16
10606;BME280;5350;42.698;23.148;2022-10-19T01:15:16;94145.38;;;5.60;99.62
10606;BME280;5350;42.698;23.148;2022-10-19T01:17:51;94146.84;;;5.51;100.00
10606;BME280;5350;42.698;23.148;2022-10-19T01:20:35;94139.78;;;5.46;100.00
10606;BME280;5350;42.698;23.148;2022-10-19T01:23:30;94135.13;;;5.53;100.00
10606;BME280;5350;42.698;23.148;2022-10-19T01:26:13;94134.81;;;5.23;100.00
10606;BME280;5350;42.698;23.148;2022-10-19T01:28:53;94127.28;;;5.05;100.00
10606;BME280;5350;42.698;23.148;2022-10-19T01:31:32;94121.88;;;5.12;100.00
10606;BME280;5350;42.698;23.148;2022-10-19T01:34:03;94114.31;;;5.10;100.00
10606;BME280;5350;42.698;23.148;2022-10-19T01:36:38;94121.75;;;5.02;100.00
10606;BME280;5350;42.698;23.148;2022-10-19T01:39:10;94126.06;;;4.91;100.00
10606;BME280;5350;42.698;23.148;2022-10-19T01:41:44;94123.72;;;4.90;100.00
10606;BME280;5350;42.698;23.148;2022-10-19T01:44:16;94119.28;;;4.90;100.00
10606;BME280;5350;42.698;23.148;2022-10-19T01:46:50;94123.75;;;4.95;100.00
10606;BME280;5350;42.698;23.148;2022-10-19T01:49:23;94117.78;;;4.94;100.00
10606;BME280;5350;42.698;23.148;2022-10-19T01:51:56;94116.38;;;5.08;99.24
10606;BME280;5350;42.698;23.148;2022-10-19T01:54:27;94107.31;;;5.16;97.83
10606;BME280;5350;42.698;23.148;2022-10-19T01:56:58;94106.13;;;5.23;96.48
10606;BME280;5350;42.698;23.148;2022-10-19T01:59:26;94105.44;;;5.33;93.41
10606;BME280;5350;42.698;23.148;2022-10-19T02:01:54;94107.03;;;5.34;96.02
10606;BME280;5350;42.698;23.148;2022-10-19T02:04:23;94099.25;;;5.39;96.06
10606;BME280;5350;42.698;23.148;2022-10-19T02:06:52;94106.28;;;5.38;96.50
10606;BME280;5350;42.698;23.148;2022-10-19T02:09:20;94104.81;;;5.47;94.39
10606;BME280;5350;42.698;23.148;2022-10-19T02:11:50;94102.00;;;5.54;93.80
10606;BME280;5350;42.698;23.148;2022-10-19T02:14:24;94097.06;;;5.57;92.48
10606;BME280;5350;42.698;23.148;2022-10-19T02:16:58;94098.41;;;5.60;92.13
10606;BME280;5350;42.698;23.148;2022-10-19T02:19:27;94097.72;;;5.69;90.81
10606;BME280;5350;42.698;23.148;2022-10-19T02:21:55;94088.25;;;5.63;91.60
10606;BME280;5350;42.698;23.148;2022-10-19T02:24:22;94102.19;;;5.74;91.72
10606;BME280;5350;42.698;23.148;2022-10-19T02:26:49;94093.28;;;5.70;91.08
10606;BME280;5350;42.698;23.148;2022-10-19T02:29:17;94100.91;;;5.77;90.31
10606;BME280;5350;42.698;23.148;2022-10-19T02:31:44;94103.81;;;5.80;90.05
10606;BME280;5350;42.698;23.148;2022-10-19T02:34:12;94106.50;;;5.85;88.83
10606;BME280;5350;42.698;23.148;2022-10-19T02:36:39;94107.34;;;5.91;89.15
10606;BME280;5350;42.698;23.148;2022-10-19T02:39:07;94103.69;;;5.92;89.38
10606;BME280;5350;42.698;23.148;2022-10-19T02:41:37;94106.78;;;5.89;89.94
10606;BME280;5350;42.698;23.148;2022-10-19T02:44:11;94102.38;;;5.89;90.13
10606;BME280;5350;42.698;23.148;2022-10-19T02:46:43;94107.09;;;5.92;88.78
10606;BME280;5350;42.698;23.148;2022-10-19T02:49:12;94106.06;;;5.93;89.29
10606;BME280;5350;42.698;23.148;2022-10-19T02:51:53;94100.56;;;5.95;89.05
10606;BME280;5350;42.698;23.148;2022-10-19T02:54:22;94098.75;;;5.95;90.53
10606;BME280;5350;42.698;23.148;2022-10-19T02:56:48;94100.03;;;5.93;91.00
10606;BME280;5350;42.698;23.148;2022-10-19T02:59:16;94092.97;;;5.88;91.29
10606;BME280;5350;42.698;23.148;2022-10-19T03:01:42;94099.50;;;5.91;90.68
10606;BME280;5350;42.698;23.148;2022-10-19T03:04:09;94107.09;;;5.92;92.20
10606;BME280;5350;42.698;23.148;2022-10-19T03:06:37;94098.72;;;5.90;90.84
10606;BME280;5350;42.698;23.148;2022-10-19T03:09:04;94096.34;;;5.89;90.42
10606;BME280;5350;42.698;23.148;2022-10-19T03:11:31;94092.75;;;5.95;90.08
10606;BME280;5350;42.698;23.148;2022-10-19T03:13:57;94094.88;;;5.98;90.02
10606;BME280;5350;42.698;23.148;2022-10-19T03:16:24;94099.00;;;5.94;91.10
10606;BME280;5350;42.698;23.148;2022-10-19T03:18:51;94099.47;;;5.86;92.57
10606;BME280;5350;42.698;23.148;2022-10-19T03:21:18;94097.97;;;5.95;90.16
10606;BME280;5350;42.698;23.148;2022-10-19T03:23:46;94095.34;;;5.90;90.79
10606;BME280;5350;42.698;23.148;2022-10-19T03:26:14;94095.34;;;5.95;90.94
10606;BME280;5350;42.698;23.148;2022-10-19T03:28:41;94090.13;;;5.95;89.71
10606;BME280;5350;42.698;23.148;2022-10-19T03:31:08;94096.94;;;5.96;89.93
10606;BME280;5350;42.698;23.148;2022-10-19T03:33:35;94090.25;;;6.05;89.56
10606;BME280;5350;42.698;23.148;2022-10-19T03:36:15;94083.44;;;6.04;88.73
10606;BME280;5350;42.698;23.148;2022-10-19T03:38:44;94091.06;;;6.10;89.24
10606;BME280;5350;42.698;23.148;2022-10-19T03:41:12;94081.88;;;6.03;89.74
10606;BME280;5350;42.698;23.148;2022-10-19T03:43:38;94084.47;;;6.03;90.27
10606;BME280;5350;42.698;23.148;2022-10-19T03:46:07;94090.66;;;5.97;91.45
10606;BME280;5350;42.698;23.148;2022-10-19T03:48:34;94088.91;;;6.02;92.05
10606;BME280;5350;42.698;23.148;2022-10-19T03:51:02;94080.22;;;5.97;91.08
10606;BME280;5350;42.698;23.148;2022-10-19T03:53:29;94084.38;;;5.93;91.68
10606;BME280;5350;42.698;23.148;2022-10-19T03:56:03;94076.22;;;5.84;93.78
10606;BME280;5350;42.698;23.148;2022-10-19T03:58:33;94073.81;;;5.83;94.05
10606;BME280;5350;42.698;23.148;2022-10-19T04:01:01;94079.91;;;5.88;94.45
10606;BME280;5350;42.698;23.148;2022-10-19T04:03:31;94068.44;;;5.89;94.02
10606;BME280;5350;42.698;23.148;2022-10-19T04:06:01;94072.91;;;5.94;95.02
10606;BME280;5350;42.698;23.148;2022-10-19T04:08:29;94057.06;;;5.79;95.08
10606;BME280;5350;42.698;23.148;2022-10-19T04:10:59;94066.94;;;5.72;96.45
10606;BME280;5350;42.698;23.148;2022-10-19T04:13:26;94066.91;;;5.66;96.82
10606;BME280;5350;42.698;23.148;2022-10-19T04:15:55;94062.69;;;5.65;97.67
10606;BME280;5350;42.698;23.148;2022-10-19T04:18:21;94053.50;;;5.58;96.67
10606;BME280;5350;42.698;23.148;2022-10-19T04:20:49;94057.84;;;5.47;97.84
10606;BME280;5350;42.698;23.148;2022-10-19T04:23:20;94061.72;;;5.45;98.92
10606;BME280;5350;42.698;23.148;2022-10-19T04:25:47;94053.91;;;5.45;100.00
10606;BME280;5350;42.698;23.148;2022-10-19T04:28:13;94062.53;;;5.45;99.10
10606;BME280;5350;42.698;23.148;2022-10-19T04:30:40;94062.88;;;5.54;97.38
10606;BME280;5350;42.698;23.148;2022-10-19T04:33:08;94051.44;;;5.33;100.00
10606;BME280;5350;42.698;23.148;2022-10-19T04:35:35;94054.69;;;5.19;100.00
10606;BME280;5350;42.698;23.148;2022-10-19T04:38:01;94052.81;;;5.14;100.00
10606;BME280;5350;42.698;23.148;2022-10-19T04:40:28;94054.69;;;5.19;100.00
10606;BME280;5350;42.698;23.148;2022-10-19T04:42:55;94056.22;;;4.93;100.00
10606;BME280;5350;42.698;23.148;2022-10-19T04:45:23;94047.25;;;4.84;100.00
10606;BME280;5350;42.698;23.148;2022-10-19T04:47:49;94032.41;;;4.84;100.00
10606;BME280;5350;42.698;23.148;2022-10-19T04:50:19;94052.38;;;5.01;100.00
10606;BME280;5350;42.698;23.148;2022-10-19T04:52:46;94053.25;;;5.06;100.00
10606;BME280;5350;42.698;23.148;2022-10-19T04:55:13;94050.91;;;5.05;100.00
10606;BME280;5350;42.698;23.148;2022-10-19T04:57:40;94049.59;;;5.07;100.00
10606;BME280;5350;42.698;23.148;2022-10-19T05:00:07;94045.25;;;5.13;100.00
10606;BME280;5350;42.698;23.148;2022-10-19T05:02:34;94048.59;;;5.08;100.00
10606;BME280;5350;42.698;23.148;2022-10-19T05:05:01;94044.63;;;5.06;100.00
10606;BME280;5350;42.698;23.148;2022-10-19T05:07:29;94036.97;;;4.94;100.00
10606;BME280;5350;42.698;23.148;2022-10-19T05:09:56;94042.28;;;5.04;100.00
10606;BME280;5350;42.698;23.148;2022-10-19T05:12:22;94042.84;;;5.11;100.00
10606;BME280;5350;42.698;23.148;2022-10-19T05:14:49;94048.25;;;5.26;100.00
10606;BME280;5350;42.698;23.148;2022-10-19T05:17:16;94043.28;;;5.25;100.00
10606;BME280;5350;42.698;23.148;2022-10-19T05:19:42;94048.31;;;5.31;100.00
10606;BME280;5350;42.698;23.148;2022-10-19T05:22:09;94037.88;;;5.31;100.00
10606;BME280;5350;42.698;23.148;2022-10-19T05:24:37;94040.50;;;5.36;99.39
10606;BME280;5350;42.698;23.148;2022-10-19T05:27:04;94042.53;;;5.29;100.00
10606;BME280;5350;42.698;23.148;2022-10-19T05:29:30;94056.66;;;5.33;100.00
10606;BME280;5350;42.698;23.148;2022-10-19T05:31:58;94044.72;;;5.37;100.00
10606;BME280;5350;42.698;23.148;2022-10-19T05:34:24;94049.72;;;5.44;100.00
10606;BME280;5350;42.698;23.148;2022-10-19T05:36:54;94049.75;;;5.49;100.00
10606;BME280;5350;42.698;23.148;2022-10-19T05:39:20;94049.63;;;5.60;99.96
10606;BME280;5350;42.698;23.148;2022-10-19T05:41:49;94052.31;;;5.71;98.49
10606;BME280;5350;42.698;23.148;2022-10-19T05:44:17;94055.00;;;5.81;98.89
10606;BME280;5350;42.698;23.148;2022-10-19T05:46:45;94016.69;;;5.54;97.36
10606;BME280;5350;42.698;23.148;2022-10-19T05:49:12;94065.06;;;5.94;96.39
10606;BME280;5350;42.698;23.148;2022-10-19T05:51:39;94057.34;;;6.09;94.51
10606;BME280;5350;42.698;23.148;2022-10-19T05:54:06;94075.66;;;6.09;95.09
10606;BME280;5350;42.698;23.148;2022-10-19T05:56:33;94048.78;;;6.18;95.16
10606;BME280;5350;42.698;23.148;2022-10-19T05:59:04;94065.13;;;6.35;97.16
10606;BME280;5350;42.698;23.148;2022-10-19T06:01:31;94059.63;;;6.37;97.98
10606;BME280;5350;42.698;23.148;2022-10-19T06:03:59;94059.16;;;6.45;97.00
10606;BME280;5350;42.698;23.148;2022-10-19T06:06:27;94074.63;;;6.52;96.67
10606;BME280;5350;42.698;23.148;2022-10-19T06:08:55;94074.88;;;6.55;95.66
10606;BME280;5350;42.698;23.148;2022-10-19T06:11:25;94070.75;;;6.59;96.59
10606;BME280;5350;42.698;23.148;2022-10-19T06:13:53;94059.78;;;6.62;95.41
10606;BME280;5350;42.698;23.148;2022-10-19T06:16:24;94071.34;;;6.76;95.48
10606;BME280;5350;42.698;23.148;2022-10-19T06:18:51;94070.88;;;6.89;94.00
10606;BME280;5350;42.698;23.148;2022-10-19T06:21:20;94079.31;;;6.96;91.97
10606;BME280;5350;42.698;23.148;2022-10-19T06:23:49;94085.59;;;7.05;91.06
10606;BME280;5350;42.698;23.148;2022-10-19T06:26:16;94083.50;;;7.07;87.32
10606;BME280;5350;42.698;23.148;2022-10-19T06:28:43;94088.81;;;7.17;87.11
10606;BME280;5350;42.698;23.148;2022-10-19T06:31:11;94085.16;;;7.23;86.16
10606;BME280;5350;42.698;23.148;2022-10-19T06:33:42;94083.38;;;7.34;86.87
10606;BME280;5350;42.698;23.148;2022-10-19T06:36:12;94085.75;;;7.46;86.63
10606;BME280;5350;42.698;23.148;2022-10-19T06:38:39;94084.44;;;7.48;86.72
10606;BME280;5350;42.698;23.148;2022-10-19T06:41:06;94081.34;;;7.66;86.47
10606;BME280;5350;42.698;23.148;2022-10-19T06:43:33;94076.91;;;7.82;85.68
10606;BME280;5350;42.698;23.148;2022-10-19T06:46:03;94081.63;;;7.95;85.61
10606;BME280;5350;42.698;23.148;2022-10-19T06:48:30;94078.75;;;8.06;85.10
10606;BME280;5350;42.698;23.148;2022-10-19T06:50:59;94073.25;;;8.18;84.51
10606;BME280;5350;42.698;23.148;2022-10-19T06:53:26;94071.69;;;8.37;83.79
10606;BME280;5350;42.698;23.148;2022-10-19T06:55:56;94073.25;;;8.48;84.57
10606;BME280;5350;42.698;23.148;2022-10-19T06:58:22;94068.00;;;8.58;84.38
10606;BME280;5350;42.698;23.148;2022-10-19T07:00:53;94071.38;;;8.74;81.63
10606;BME280;5350;42.698;23.148;2022-10-19T07:03:21;94065.31;;;8.83;81.92
10606;BME280;5350;42.698;23.148;2022-10-19T07:05:52;94070.50;;;9.04;81.62
10606;BME280;5350;42.698;23.148;2022-10-19T07:08:20;94081.72;;;9.14;81.64
10606;BME280;5350;42.698;23.148;2022-10-19T07:10:49;94059.94;;;9.24;81.76
10606;BME280;5350;42.698;23.148;2022-10-19T07:13:16;94066.38;;;9.41;80.52
10606;BME280;5350;42.698;23.148;2022-10-19T07:15:42;94072.38;;;9.52;79.53
10606;BME280;5350;42.698;23.148;2022-10-19T07:18:09;94063.09;;;9.70;78.71
10606;BME280;5350;42.698;23.148;2022-10-19T07:20:36;94063.69;;;9.95;77.37
10606;BME280;5350;42.698;23.148;2022-10-19T07:23:02;94060.16;;;10.15;77.52
10606;BME280;5350;42.698;23.148;2022-10-19T07:25:31;94064.47;;;10.34;75.52
10606;BME280;5350;42.698;23.148;2022-10-19T07:27:57;94069.56;;;10.55;75.07
10606;BME280;5350;42.698;23.148;2022-10-19T07:30:24;94064.66;;;10.72;73.75
10606;BME280;5350;42.698;23.148;2022-10-19T07:32:51;94060.78;;;10.88;72.99
10606;BME280;5350;42.698;23.148;2022-10-19T07:35:17;94056.53;;;11.15;71.33
10606;BME280;5350;42.698;23.148;2022-10-19T07:37:44;94061.34;;;11.32;70.29
10606;BME280;5350;42.698;23.148;2022-10-19T07:40:12;94052.13;;;11.53;68.93
10606;BME280;5350;42.698;23.148;2022-10-19T07:42:40;94041.38;;;11.68;68.42
10606;BME280;5350;42.698;23.148;2022-10-19T07:45:07;94039.47;;;11.92;67.60
10606;BME280;5350;42.698;23.148;2022-10-19T07:47:33;94041.47;;;12.14;66.88
10606;BME280;5350;42.698;23.148;2022-10-19T07:50:00;94021.91;;;12.34;65.29
10606;BME280;5350;42.698;23.148;2022-10-19T07:52:27;94032.59;;;12.56;60.93
10606;BME280;5350;42.698;23.148;2022-10-19T07:54:53;94031.66;;;12.79;55.78
10606;BME280;5350;42.698;23.148;2022-10-19T07:57:20;94031.56;;;12.98;53.99
10606;BME280;5350;42.698;23.148;2022-10-19T07:59:49;94033.97;;;13.26;55.83
10606;BME280;5350;42.698;23.148;2022-10-19T08:02:16;94030.50;;;13.53;52.26
10606;BME280;5350;42.698;23.148;2022-10-19T08:04:44;94027.41;;;13.73;49.93
10606;BME280;5350;42.698;23.148;2022-10-19T08:07:11;94016.97;;;13.90;49.36
10606;BME280;5350;42.698;23.148;2022-10-19T08:09:38;94029.66;;;14.02;49.45
10606;BME280;5350;42.698;23.148;2022-10-19T08:12:04;94025.41;;;14.14;51.28
10606;BME280;5350;42.698;23.148;2022-10-19T08:14:31;94026.41;;;14.27;51.25
10606;BME280;5350;42.698;23.148;2022-10-19T08:17:00;94030.47;;;14.47;48.67
10606;BME280;5350;42.698;23.148;2022-10-19T08:19:26;94029.00;;;14.63;47.55
10606;BME280;5350;42.698;23.148;2022-10-19T08:21:53;94027.34;;;14.75;47.93
10606;BME280;5350;42.698;23.148;2022-10-19T08:24:20;94021.34;;;14.92;47.53
10606;BME280;5350;42.698;23.148;2022-10-19T08:26:46;94006.91;;;15.06;46.28
10606;BME280;5350;42.698;23.148;2022-10-19T08:29:17;94007.91;;;15.28;46.88
10606;BME280;5350;42.698;23.148;2022-10-19T08:31:45;93999.66;;;15.38;46.66
10606;BME280;5350;42.698;23.148;2022-10-19T08:34:14;94007.84;;;15.58;46.31
10606;BME280;5350;42.698;23.148;2022-10-19T08:36:41;94008.03;;;15.70;45.50
10606;BME280;5350;42.698;23.148;2022-10-19T08:39:09;94011.00;;;15.94;44.88
10606;BME280;5350;42.698;23.148;2022-10-19T08:41:51;94003.97;;;16.07;45.73
10606;BME280;5350;42.698;23.148;2022-10-19T08:44:35;94005.50;;;16.17;43.66
10606;BME280;5350;42.698;23.148;2022-10-19T08:47:15;94007.69;;;16.40;45.58
10606;BME280;5350;42.698;23.148;2022-10-19T08:49:46;94002.84;;;16.59;45.19
10606;BME280;5350;42.698;23.148;2022-10-19T08:52:18;94003.41;;;16.73;43.63
10606;BME280;5350;42.698;23.148;2022-10-19T08:54:50;94001.16;;;16.93;42.69
10606;BME280;5350;42.698;23.148;2022-10-19T08:57:27;93999.56;;;17.00;41.82
10606;BME280;5350;42.698;23.148;2022-10-19T09:00:02;93998.31;;;17.06;40.75
10606;BME280;5350;42.698;23.148;2022-10-19T09:02:41;93990.13;;;17.11;40.89
10606;BME280;5350;42.698;23.148;2022-10-19T09:05:17;93997.91;;;17.25;42.23
10606;BME280;5350;42.698;23.148;2022-10-19T09:07:51;93992.38;;;17.30;40.66
10606;BME280;5350;42.698;23.148;2022-10-19T09:10:22;93996.31;;;17.24;40.50
10606;BME280;5350;42.698;23.148;2022-10-19T09:12:54;93985.66;;;17.32;42.56
10606;BME280;5350;42.698;23.148;2022-10-19T09:15:25;94001.94;;;17.31;40.70
10606;BME280;5350;42.698;23.148;2022-10-19T09:17:52;93972.94;;;17.38;40.36
10606;BME280;5350;42.698;23.148;2022-10-19T09:20:22;93986.50;;;17.53;39.88
10606;BME280;5350;42.698;23.148;2022-10-19T09:23:00;93990.13;;;17.70;40.42
10606;BME280;5350;42.698;23.148;2022-10-19T09:25:28;93996.19;;;17.79;39.87
10606;BME280;5350;42.698;23.148;2022-10-19T09:28:02;93993.50;;;17.58;38.99
10606;BME280;5350;42.698;23.148;2022-10-19T09:30:33;93998.00;;;17.66;38.65
10606;BME280;5350;42.698;23.148;2022-10-19T09:33:02;93996.69;;;17.51;38.72
10606;BME280;5350;42.698;23.148;2022-10-19T09:35:35;93989.50;;;17.52;38.65
10606;BME280;5350;42.698;23.148;2022-10-19T09:38:04;93992.84;;;17.61;38.34
10606;BME280;5350;42.698;23.148;2022-10-19T09:40:32;93992.47;;;17.71;38.82
10606;BME280;5350;42.698;23.148;2022-10-19T09:42:59;93987.81;;;17.68;38.71
10606;BME280;5350;42.698;23.148;2022-10-19T09:45:38;93996.19;;;17.79;37.38
10606;BME280;5350;42.698;23.148;2022-10-19T09:48:14;93991.44;;;17.84;36.39
10606;BME280;5350;42.698;23.148;2022-10-19T09:50:44;94000.16;;;17.73;36.41
10606;BME280;5350;42.698;23.148;2022-10-19T09:53:17;93993.06;;;17.56;36.79
10606;BME280;5350;42.698;23.148;2022-10-19T09:55:46;93985.84;;;17.56;36.90
10606;BME280;5350;42.698;23.148;2022-10-19T09:58:17;93990.25;;;17.73;36.50
10606;BME280;5350;42.698;23.148;2022-10-19T10:00:46;93975.47;;;17.84;36.13
10606;BME280;5350;42.698;23.148;2022-10-19T10:03:26;93976.34;;;18.09;36.34
10606;BME280;5350;42.698;23.148;2022-10-19T10:05:56;93980.09;;;18.28;34.53
10606;BME280;5350;42.698;23.148;2022-10-19T10:08:25;93984.53;;;18.45;34.66
10606;BME280;5350;42.698;23.148;2022-10-19T10:10:57;93972.00;;;18.58;32.46
10606;BME280;5350;42.698;23.148;2022-10-19T10:13:28;93967.91;;;18.48;31.79
10606;BME280;5350;42.698;23.148;2022-10-19T10:15:58;93965.53;;;18.47;32.81
10606;BME280;5350;42.698;23.148;2022-10-19T10:18:27;93953.66;;;18.44;31.94
10606;BME280;5350;42.698;23.148;2022-10-19T10:21:01;93951.25;;;18.51;32.29
10606;BME280;5350;42.698;23.148;2022-10-19T10:23:31;93946.38;;;18.65;32.78
10606;BME280;5350;42.698;23.148;2022-10-19T10:26:01;93943.31;;;18.87;31.89
10606;BME280;5350;42.698;23.148;2022-10-19T10:28:29;93931.84;;;19.11;31.85
10606;BME280;5350;42.698;23.148;2022-10-19T10:31:01;93909.53;;;19.15;30.74
10606;BME280;5350;42.698;23.148;2022-10-19T10:33:30;93923.63;;;19.40;29.85
10606;BME280;5350;42.698;23.148;2022-10-19T10:36:04;93925.09;;;19.38;29.41
10606;BME280;5350;42.698;23.148;2022-10-19T10:38:34;93924.50;;;19.44;29.79
10606;BME280;5350;42.698;23.148;2022-10-19T10:41:04;93914.19;;;19.43;30.90
10606;BME280;5350;42.698;23.148;2022-10-19T10:43:35;93915.75;;;19.44;30.09
10606;BME280;5350;42.698;23.148;2022-10-19T10:46:05;93911.03;;;19.53;28.76
10606;BME280;5350;42.698;23.148;2022-10-19T10:48:37;93915.16;;;19.62;29.20
10606;BME280;5350;42.698;23.148;2022-10-19T10:51:18;93904.66;;;19.69;29.80
10606;BME280;5350;42.698;23.148;2022-10-19T10:53:46;93904.38;;;19.86;28.62
10606;BME280;5350;42.698;23.148;2022-10-19T10:56:21;93896.09;;;20.04;29.50
10606;BME280;5350;42.698;23.148;2022-10-19T10:58:51;93894.53;;;20.30;29.82
10606;BME280;5350;42.698;23.148;2022-10-19T11:01:23;93898.50;;;20.21;28.41
10606;BME280;5350;42.698;23.148;2022-10-19T11:03:59;93896.09;;;20.04;28.24
10606;BME280;5350;42.698;23.148;2022-10-19T11:09:07;93887.72;;;19.89;28.66
10606;BME280;5350;42.698;23.148;2022-10-19T11:11:41;93889.03;;;20.11;28.05
10606;BME280;5350;42.698;23.148;2022-10-19T11:14:27;93875.84;;;20.03;28.83
10606;BME280;5350;42.698;23.148;2022-10-19T11:16:58;93872.66;;;19.97;27.75
10606;BME280;5350;42.698;23.148;2022-10-19T11:19:33;93880.72;;;20.13;28.34
10606;BME280;5350;42.698;23.148;2022-10-19T11:22:09;93879.44;;;20.22;28.84
10606;BME280;5350;42.698;23.148;2022-10-19T11:24:49;93879.72;;;20.33;28.61
10606;BME280;5350;42.698;23.148;2022-10-19T11:27:26;93867.84;;;20.46;29.57
10606;BME280;5350;42.698;23.148;2022-10-19T11:30:11;93873.63;;;20.48;28.45
10606;BME280;5350;42.698;23.148;2022-10-19T11:32:47;93864.31;;;20.57;29.57
10606;BME280;5350;42.698;23.148;2022-10-19T11:35:27;93868.81;;;20.69;28.74
10606;BME280;5350;42.698;23.148;2022-10-19T11:38:06;93854.81;;;20.91;29.27
10606;BME280;5350;42.698;23.148;2022-10-19T11:40:39;93856.03;;;20.94;28.68
10606;BME280;5350;42.698;23.148;2022-10-19T11:43:13;93847.72;;;20.99;27.11
10606;BME280;5350;42.698;23.148;2022-10-19T11:45:49;93844.13;;;21.07;27.65
10606;BME280;5350;42.698;23.148;2022-10-19T11:48:37;93840.00;;;21.28;27.39
10606;BME280;5350;42.698;23.148;2022-10-19T11:51:13;93836.09;;;21.61;27.15
10606;BME280;5350;42.698;23.148;2022-10-19T11:53:52;93836.25;;;21.87;26.68
10606;BME280;5350;42.698;23.148;2022-10-19T11:56:28;93824.22;;;22.19;27.90
10606;BME280;5350;42.698;23.148;2022-10-19T11:59:02;93826.88;;;22.38;27.20
10606;BME280;5350;42.698;23.148;2022-10-19T12:01:42;93835.06;;;22.26;26.50
10606;BME280;5350;42.698;23.148;2022-10-19T12:04:35;93828.41;;;21.97;27.34
10606;BME280;5350;42.698;23.148;2022-10-19T12:07:14;93836.09;;;21.61;27.66
10606;BME280;5350;42.698;23.148;2022-10-19T12:09:53;93831.28;;;21.31;27.88
10606;BME280;5350;42.698;23.148;2022-10-19T12:12:28;93826.66;;;21.67;28.51
10606;BME280;5350;42.698;23.148;2022-10-19T12:15:05;93827.72;;;21.81;28.31
10606;BME280;5350;42.698;23.148;2022-10-19T12:17:40;93833.56;;;21.87;27.71
10606;BME280;5350;42.698;23.148;2022-10-19T12:20:15;93825.13;;;21.85;27.66
10606;BME280;5350;42.698;23.148;2022-10-19T12:22:47;93834.59;;;22.01;27.96
10606;BME280;5350;42.698;23.148;2022-10-19T12:25:17;93828.63;;;22.08;27.80
10606;BME280;5350;42.698;23.148;2022-10-19T12:27:45;93836.91;;;22.22;28.29
10606;BME280;5350;42.698;23.148;2022-10-19T12:30:16;93834.22;;;22.22;27.96
10606;BME280;5350;42.698;23.148;2022-10-19T12:32:54;93826.38;;;21.91;28.16
10606;BME280;5350;42.698;23.148;2022-10-19T12:35:35;93827.56;;;21.93;28.46
10606;BME280;5350;42.698;23.148;2022-10-19T12:38:10;93823.50;;;22.22;28.29
10606;BME280;5350;42.698;23.148;2022-10-19T12:40:45;93815.06;;;22.20;28.55
10606;BME280;5350;42.698;23.148;2022-10-19T12:43:19;93811.78;;;22.30;28.85
10606;BME280;5350;42.698;23.148;2022-10-19T12:46:00;93818.78;;;22.15;29.27
10606;BME280;5350;42.698;23.148;2022-10-19T12:48:28;93811.00;;;22.07;29.80
10606;BME280;5350;42.698;23.148;2022-10-19T12:51:00;93804.69;;;22.41;29.72
10606;BME280;5350;42.698;23.148;2022-10-19T12:53:29;93805.94;;;22.47;30.12
10606;BME280;5350;42.698;23.148;2022-10-19T12:56:03;93807.69;;;22.36;29.82
10606;BME280;5350;42.698;23.148;2022-10-19T12:58:33;93810.47;;;22.43;30.52
10606;BME280;5350;42.698;23.148;2022-10-19T13:01:03;93810.66;;;22.31;30.13
10606;BME280;5350;42.698;23.148;2022-10-19T13:03:33;93809.44;;;22.51;29.97
10606;BME280;5350;42.698;23.148;2022-10-19T13:06:02;93802.25;;;22.55;29.80
10606;BME280;5350;42.698;23.148;2022-10-19T13:08:33;93803.50;;;22.61;30.31
10606;BME280;5350;42.698;23.148;2022-10-19T13:11:06;93789.69;;;22.59;30.31
10606;BME280;5350;42.698;23.148;2022-10-19T13:13:55;93787.97;;;22.70;30.71
10606;BME280;5350;42.698;23.148;2022-10-19T13:16:54;93784.56;;;22.99;30.00
10606;BME280;5350;42.698;23.148;2022-10-19T13:19:21;93787.28;;;23.03;29.63
10606;BME280;5350;42.698;23.148;2022-10-19T13:25:24;93793.84;;;22.79;29.24
10606;BME280;5350;42.698;23.148;2022-10-19T13:27:55;93786.44;;;22.69;29.89